createdAt,value
2022-08-05T04:01:39.771Z,100261.95
2022-08-05T04:04:10.982Z,100265.45
2022-08-05T04:06:47.495Z,100268.40
2022-08-05T04:09:20.363Z,100276.27
2022-08-05T04:11:57.109Z,100275.11
2022-08-05T04:14:30.601Z,100277.16
2022-08-05T04:17:00.705Z,100275.69
2022-08-05T04:19:29.666Z,100270.55
2022-08-05T04:22:10.164Z,100269.21
2022-08-05T04:24:52.599Z,100266.45
2022-08-05T04:27:41.713Z,100265.62
2022-08-05T04:30:10.648Z,100266.75
2022-08-05T04:32:38.204Z,100265.23
2022-08-05T04:35:13.527Z,100260.41
2022-08-05T04:38:01.969Z,100257.09
2022-08-05T04:40:44.445Z,100258.08
2022-08-05T04:43:16.903Z,100260.05
2022-08-05T04:45:48.060Z,100261.09
2022-08-05T04:48:27.237Z,100261.77
2022-08-05T04:51:02.735Z,100259.02
2022-08-05T04:53:38.655Z,100258.67
2022-08-05T04:56:33.903Z,100257.13
2022-08-05T04:58:57.083Z,100254.86
2022-08-05T05:02:06.425Z,100253.80
2022-08-05T05:04:11.985Z,100255.71
2022-08-05T05:06:44.769Z,100258.10
2022-08-05T05:09:17.689Z,100262.91
2022-08-05T05:11:54.633Z,100262.20
2022-08-05T05:14:27.855Z,100261.69
2022-08-05T05:17:07.539Z,100257.90
2022-08-05T05:19:44.341Z,100255.45
2022-08-05T05:22:22.671Z,100255.20
2022-08-05T05:25:00.100Z,100254.48
2022-08-05T05:27:44.909Z,100255.57
2022-08-05T05:30:29.419Z,100257.47
2022-08-05T05:33:09.331Z,100253.41
2022-08-05T05:35:47.573Z,100254.45
2022-08-05T05:38:27.178Z,100252.02
2022-08-05T05:40:57.249Z,100247.86
2022-08-05T05:43:54.829Z,100246.45
2022-08-05T05:46:17.768Z,100249.05
2022-08-05T05:48:48.904Z,100251.45
2022-08-05T05:51:24.364Z,100240.27
2022-08-05T05:53:58.907Z,100240.02
2022-08-05T05:56:32.289Z,100235.59
2022-08-05T05:59:06.484Z,100241.41
2022-08-05T06:01:39.841Z,100235.63
2022-08-05T06:04:13.120Z,100231.13
2022-08-05T06:06:47.522Z,100228.52
2022-08-05T06:09:25.662Z,100231.45
2022-08-05T06:11:59.316Z,100232.55
2022-08-05T06:14:31.736Z,100238.28
2022-08-05T06:17:02.006Z,100238.04
2022-08-05T06:19:57.150Z,100233.44
2022-08-05T06:22:30.433Z,100234.03
2022-08-05T06:25:59.467Z,100229.23
2022-08-05T06:28:12.288Z,100227.59
2022-08-05T06:30:40.676Z,100231.20
2022-08-05T06:33:09.988Z,100232.98
2022-08-05T06:36:05.727Z,100233.56
2022-08-05T06:38:36.058Z,100237.33
2022-08-05T06:41:07.970Z,100237.27
2022-08-05T06:43:59.304Z,100236.08
2022-08-05T06:46:30.405Z,100239.56
2022-08-05T06:49:01.154Z,100230.23
2022-08-05T06:51:30.888Z,100233.01
2022-08-05T06:54:02.017Z,100233.30
2022-08-05T06:56:33.929Z,100228.23
2022-08-05T06:59:09.540Z,100230.32
2022-08-05T07:01:40.491Z,100224.66
2022-08-05T07:04:10.476Z,100224.42
2022-08-05T07:06:38.403Z,100222.02
2022-08-05T07:09:06.190Z,100218.70
2022-08-05T07:11:37.104Z,100219.81
2022-08-05T07:14:29.312Z,100218.73
2022-08-05T07:18:02.351Z,100217.41
2022-08-05T07:20:32.140Z,100215.98
2022-08-05T07:22:38.248Z,100219.17
2022-08-05T07:25:22.921Z,100217.36
2022-08-05T07:28:02.272Z,100222.48
2022-08-05T07:30:39.040Z,100225.04
2022-08-05T07:33:15.996Z,100223.98
2022-08-05T07:36:02.710Z,100216.35
2022-08-05T07:38:43.140Z,100220.46
2022-08-05T07:42:14.488Z,100221.67
2022-08-05T07:44:18.351Z,100224.25
2022-08-05T07:46:49.385Z,100224.95
2022-08-05T07:49:19.190Z,100221.07
2022-08-05T07:51:53.490Z,100218.92
2022-08-05T07:54:26.631Z,100222.20
2022-08-05T07:57:01.732Z,100226.19
2022-08-05T07:59:42.145Z,100223.58
2022-08-05T08:02:16.014Z,100225.66
2022-08-05T08:04:46.844Z,100226.14
2022-08-05T08:07:15.005Z,100226.03
2022-08-05T08:09:43.197Z,100225.04
2022-08-05T08:12:37.419Z,100220.52
2022-08-05T08:15:02.199Z,100222.38
2022-08-05T08:17:32.062Z,100221.36
2022-08-05T08:20:10.099Z,100216.56
2022-08-05T08:24:01.457Z,100216.19
2022-08-05T08:26:26.710Z,100211.61
2022-08-05T08:29:24.564Z,100206.64
2022-08-05T08:31:49.054Z,100208.13
2022-08-05T08:34:29.890Z,100202.83
2022-08-05T08:37:05.036Z,100200.81
2022-08-05T08:39:37.518Z,100201.55
2022-08-05T08:42:34.360Z,100200.18
2022-08-05T08:45:22.721Z,100200.91
2022-08-05T08:48:12.442Z,100198.89
2022-08-05T08:54:16.989Z,100195.95
2022-08-05T08:56:45.075Z,100191.64
2022-08-05T08:59:20.688Z,100194.52
2022-08-05T09:01:57.627Z,100192.38
2022-08-05T09:04:30.350Z,100187.49
2022-08-05T09:06:58.892Z,100177.91
2022-08-05T09:09:34.666Z,100182.06
2022-08-05T09:12:20.712Z,100175.14
2022-08-05T09:15:05.583Z,100178.91
2022-08-05T09:17:42.733Z,100179.65
2022-08-05T09:20:36.133Z,100177.23
2022-08-05T09:23:07.894Z,100178.65
2022-08-05T09:26:01.796Z,100180.45
2022-08-05T09:28:34.872Z,100170.41
2022-08-05T09:32:40.301Z,100171.42
2022-08-05T09:34:47.654Z,100172.88
2022-08-05T09:38:12.516Z,100166.34
2022-08-05T09:40:54.404Z,100163.56
2022-08-05T09:43:41.207Z,100156.60
2022-08-05T09:46:28.399Z,100159.27
2022-08-05T09:49:08.421Z,100158.77
2022-08-05T09:51:48.931Z,100159.98
2022-08-05T09:54:30.643Z,100151.40
2022-08-05T09:57:01.653Z,100148.69
2022-08-05T09:59:35.091Z,100146.98
2022-08-05T10:02:04.863Z,100152.48
2022-08-05T10:04:44.471Z,100154.94
2022-08-05T10:07:20.918Z,100150.45
2022-08-05T10:10:14.005Z,100149.96
2022-08-05T10:12:54.424Z,100144.11
2022-08-05T10:15:34.358Z,100144.94
2022-08-05T10:18:25.514Z,100144.38
2022-08-05T10:21:08.452Z,100150.80
2022-08-05T10:24:00.013Z,100141.11
2022-08-05T10:26:32.551Z,100147.12
2022-08-05T10:29:02.335Z,100138.42
2022-08-05T10:32:55.399Z,100134.91
2022-08-05T10:34:17.795Z,100137.32
2022-08-05T10:36:54.169Z,100134.36
2022-08-05T10:40:03.025Z,100135.90
2022-08-05T10:42:22.687Z,100129.38
2022-08-05T10:45:00.620Z,100129.52
2022-08-05T10:47:41.263Z,100126.04
2022-08-05T10:50:36.433Z,100124.61
2022-08-05T10:53:04.830Z,100120.26
2022-08-05T10:55:38.535Z,100110.11
2022-08-05T10:58:20.102Z,100115.16
2022-08-05T11:00:48.016Z,100110.61
2022-08-05T11:03:23.229Z,100103.73
2022-08-05T11:06:15.913Z,100098.58
2022-08-05T11:09:18.691Z,100099.48
2022-08-05T11:11:59.729Z,100091.23
2022-08-05T11:14:57.651Z,100092.64
2022-08-05T11:18:00.249Z,100088.08
2022-08-05T11:20:41.651Z,100085.85
2022-08-05T11:24:02.515Z,100090.57
2022-08-05T11:26:28.281Z,100082.95
2022-08-05T11:28:58.701Z,100090.72
2022-08-05T11:31:57.341Z,100090.00
2022-08-05T11:34:37.516Z,100089.33
2022-08-05T11:37:06.194Z,100096.58
2022-08-05T11:40:00.398Z,100092.29
2022-08-05T11:42:37.768Z,100096.24
2022-08-05T11:45:14.314Z,100085.40
2022-08-05T11:47:57.869Z,100091.08
2022-08-05T11:50:27.592Z,100087.79
2022-08-05T11:52:58.003Z,100082.34
2022-08-05T11:55:31.798Z,100081.76
2022-08-05T11:58:09.615Z,100077.52
2022-08-05T12:00:41.512Z,100077.88
2022-08-05T12:03:31.487Z,100078.67
2022-08-05T12:06:06.675Z,100077.36
2022-08-05T12:08:54.210Z,100074.88
2022-08-05T12:11:28.278Z,100071.97
2022-08-05T12:14:10.332Z,100069.66
2022-08-05T12:16:45.469Z,100073.89
2022-08-05T12:20:25.838Z,100068.98
2022-08-05T12:22:07.898Z,100068.47
2022-08-05T12:24:50.503Z,100074.19
2022-08-05T12:27:26.149Z,100066.58
2022-08-05T12:30:15.371Z,100062.99
2022-08-05T12:32:50.325Z,100060.36
2022-08-05T12:35:21.893Z,100056.73
2022-08-05T12:37:53.308Z,100053.42
2022-08-05T12:40:29.784Z,100054.47
2022-08-05T12:42:58.843Z,100056.55
2022-08-05T12:45:42.525Z,100054.70
2022-08-05T12:48:26.897Z,100055.10
2022-08-05T12:52:11.074Z,100053.67
2022-08-05T12:54:03.511Z,100051.95
2022-08-05T12:56:35.440Z,100049.95
2022-08-05T12:59:27.503Z,100048.52
2022-08-05T13:02:15.819Z,100046.23
2022-08-05T13:04:52.459Z,100041.81
2022-08-05T13:07:54.705Z,100035.74
2022-08-05T13:10:19.733Z,100033.65
2022-08-05T13:12:51.014Z,100029.63
2022-08-05T13:15:41.631Z,100029.89
2022-08-05T13:18:20.636Z,100026.98
2022-08-05T13:20:49.947Z,100028.52
2022-08-05T13:23:22.782Z,100022.75
2022-08-05T13:25:59.648Z,100015.63
2022-08-05T13:28:32.100Z,100014.27
2022-08-05T13:31:11.227Z,100007.17
2022-08-05T13:34:22.024Z,100004.70
2022-08-05T13:36:31.520Z,100013.31
2022-08-05T13:38:59.121Z,100006.27
2022-08-05T13:41:37.765Z,100011.46
2022-08-05T13:44:07.745Z,100003.08
2022-08-05T13:47:01.763Z,99997.90
2022-08-05T13:49:26.639Z,99989.45
2022-08-05T13:51:55.691Z,99988.53
2022-08-05T13:54:26.371Z,99986.55
2022-08-05T13:56:54.542Z,99984.23
2022-08-05T13:59:24.957Z,99980.81
2022-08-05T14:02:00.179Z,99987.02
2022-08-05T14:04:51.381Z,99984.07
2022-08-05T14:07:55.573Z,99988.21
2022-08-05T14:10:28.160Z,99985.60
2022-08-05T14:12:57.548Z,99987.14
2022-08-05T14:16:06.890Z,99988.22
2022-08-05T14:18:18.348Z,99990.08
2022-08-05T14:20:54.856Z,99984.83
2022-08-05T14:23:25.951Z,99981.46
2022-08-05T14:25:58.122Z,99977.09
2022-08-05T14:28:30.088Z,99975.73
2022-08-05T14:31:00.532Z,99968.16
2022-08-05T14:33:56.232Z,99969.45
2022-08-05T14:36:20.536Z,99969.52
2022-08-05T14:38:51.287Z,99976.55
2022-08-05T14:41:18.866Z,99979.06
2022-08-05T14:44:01.999Z,99978.85
2022-08-05T14:46:36.478Z,99978.84
2022-08-05T14:49:07.767Z,99976.19
2022-08-05T14:51:38.947Z,99972.06
2022-08-05T14:54:30.037Z,99975.09
2022-08-05T14:57:05.119Z,99974.23
2022-08-05T14:59:38.592Z,99973.45
2022-08-05T15:02:15.733Z,99965.48
2022-08-05T15:04:47.819Z,99962.76
2022-08-05T15:08:08.963Z,99965.95
2022-08-05T15:10:09.914Z,99963.95
2022-08-05T15:12:59.835Z,99959.84
2022-08-05T15:15:55.151Z,99961.36
2022-08-05T15:18:17.253Z,99954.19
2022-08-05T15:20:44.901Z,99957.40
2022-08-05T15:23:14.370Z,99956.27
2022-08-05T15:25:53.029Z,99954.64
2022-08-05T15:28:27.394Z,99949.36
2022-08-05T15:30:57.561Z,99951.17
2022-08-05T15:34:05.837Z,99947.29
2022-08-05T15:36:17.422Z,99948.35
2022-08-05T15:40:41.275Z,99951.11
2022-08-05T15:41:58.420Z,99956.04
2022-08-05T15:44:30.326Z,99954.86
2022-08-05T15:47:01.398Z,99961.86
2022-08-05T15:49:55.235Z,99962.73
2022-08-05T15:52:52.340Z,99969.98
2022-08-05T15:55:10.741Z,99967.26
2022-08-05T15:57:45.763Z,99970.00
2022-08-05T16:00:26.073Z,99965.55
2022-08-05T16:03:07.462Z,99964.99
2022-08-05T16:05:36.115Z,99960.37
2022-08-05T16:08:07.779Z,99959.24
2022-08-05T16:10:36.326Z,99961.38
2022-08-05T16:13:04.522Z,99956.32
2022-08-05T16:15:33.950Z,99949.34
2022-08-05T16:18:04.328Z,99947.89
2022-08-05T16:20:38.409Z,99945.26
2022-08-05T16:23:08.631Z,99942.83
2022-08-05T16:25:38.100Z,99942.20
2022-08-05T16:28:09.786Z,99940.34
2022-08-05T16:30:39.083Z,99941.46
2022-08-05T16:33:09.822Z,99937.91
2022-08-05T16:35:41.957Z,99935.02
2022-08-05T16:38:18.467Z,99936.95
2022-08-05T16:40:59.597Z,99932.73
2022-08-05T16:43:33.901Z,99928.25
2022-08-05T16:46:23.808Z,99926.50
2022-08-05T16:48:53.520Z,99928.36
2022-08-05T16:51:23.895Z,99924.81
2022-08-05T16:54:05.089Z,99928.41
2022-08-05T16:56:41.608Z,99931.98
2022-08-05T16:59:10.209Z,99929.96
2022-08-05T17:01:54.695Z,99930.84
2022-08-05T17:04:28.452Z,99928.30
2022-08-05T17:07:01.861Z,99923.59
2022-08-05T17:09:57.427Z,99924.44
2022-08-05T17:12:22.591Z,99922.27
2022-08-05T17:14:51.354Z,99921.34
2022-08-05T17:17:19.620Z,99922.05
2022-08-05T17:19:47.346Z,99917.71
2022-08-05T17:22:25.610Z,99915.80
2022-08-05T17:24:57.016Z,99914.37
2022-08-05T17:27:27.518Z,99914.63
2022-08-05T17:30:12.028Z,99911.19
2022-08-05T17:32:46.777Z,99912.40
2022-08-05T17:35:20.555Z,99913.30
2022-08-05T17:37:50.556Z,99912.55
2022-08-05T17:40:22.461Z,99913.59
2022-08-05T17:42:52.975Z,99911.88
2022-08-05T17:45:24.693Z,99913.30
2022-08-05T17:47:56.127Z,99912.21
2022-08-05T17:50:30.319Z,99915.43
2022-08-05T17:53:01.485Z,99915.80
2022-08-05T17:55:37.791Z,99914.62
2022-08-05T17:58:12.840Z,99912.06
2022-08-05T18:00:45.425Z,99913.69
2022-08-05T18:03:56.083Z,99912.61
2022-08-05T18:06:12.160Z,99914.13
2022-08-05T18:08:52.099Z,99916.80
2022-08-05T18:11:23.405Z,99917.90
2022-08-05T18:13:55.413Z,99916.53
2022-08-05T18:16:23.382Z,99917.58
2022-08-05T18:18:50.958Z,99916.60
2022-08-05T18:21:19.943Z,99917.66
2022-08-05T18:23:53.686Z,99920.48
2022-08-05T18:26:27.373Z,99921.95
2022-08-05T18:28:57.071Z,99925.28
2022-08-05T18:31:25.766Z,99919.41
2022-08-05T18:34:02.862Z,99920.55
2022-08-05T18:36:30.599Z,99926.55
2022-08-05T18:38:57.757Z,99926.27
2022-08-05T18:42:00.736Z,99925.17
2022-08-05T18:44:13.962Z,99927.08
2022-08-05T18:47:03.900Z,99925.48
2022-08-05T18:49:57.253Z,99928.79
2022-08-05T18:52:41.032Z,99927.56
2022-08-05T18:55:11.209Z,99929.28
2022-08-05T18:57:43.484Z,99929.95
2022-08-05T19:00:27.268Z,99930.90
2022-08-05T19:03:03.873Z,99932.77
2022-08-05T19:06:13.612Z,99935.43
2022-08-05T19:08:30.643Z,99932.45
2022-08-05T19:11:04.450Z,99932.55
2022-08-05T19:13:35.965Z,99932.80
2022-08-05T19:16:24.928Z,99934.00
2022-08-05T19:18:56.512Z,99932.89
2022-08-05T19:21:34.491Z,99932.69
2022-08-05T19:24:12.234Z,99932.07
2022-08-05T19:26:54.733Z,99931.27
2022-08-05T19:29:26.610Z,99930.53
2022-08-05T19:32:08.697Z,99930.40
2022-08-05T19:34:40.601Z,99930.21
2022-08-05T19:37:10.169Z,99933.48
2022-08-05T19:39:45.874Z,99932.74
2022-08-05T19:42:35.781Z,99934.30
2022-08-05T19:45:06.563Z,99933.02
2022-08-05T19:47:37.683Z,99932.45
2022-08-05T19:50:11.883Z,99927.48
2022-08-05T19:52:40.563Z,99926.89
2022-08-05T19:56:13.956Z,99928.83
2022-08-05T19:58:07.069Z,99927.17
2022-08-05T20:00:46.208Z,99926.64
2022-08-05T20:03:13.717Z,99926.11
2022-08-05T20:05:50.095Z,99927.66
2022-08-05T20:08:20.262Z,99929.59
2022-08-05T20:10:49.400Z,99924.02
2022-08-05T20:13:17.845Z,99925.25
2022-08-05T20:15:51.672Z,99926.05
2022-08-05T20:18:33.649Z,99923.06
2022-08-05T20:21:06.726Z,99920.54
2022-08-05T20:23:39.602Z,99922.16
2022-08-05T20:26:27.379Z,99924.43
2022-08-05T20:29:00.858Z,99926.81
2022-08-05T20:31:42.832Z,99925.28
2022-08-05T20:34:18.055Z,99925.69
2022-08-05T20:36:48.210Z,99925.23
2022-08-05T20:39:16.932Z,99923.14
2022-08-05T20:41:48.919Z,99932.05
2022-08-05T20:44:29.680Z,99927.79
2022-08-05T20:47:14.235Z,99927.67
2022-08-05T20:49:42.875Z,99935.57
2022-08-05T20:52:12.977Z,99929.73
2022-08-05T20:54:55.418Z,99929.80
2022-08-05T20:57:43.963Z,99934.87
2022-08-05T21:00:34.916Z,99939.87
2022-08-05T21:03:08.030Z,99940.31
2022-08-05T21:05:54.078Z,99943.95
2022-08-05T21:08:26.557Z,99953.92
2022-08-05T21:11:01.530Z,99957.69
2022-08-05T21:13:55.758Z,99953.92
2022-08-05T21:16:29.476Z,99951.69
2022-08-05T21:19:03.596Z,99960.65
2022-08-05T21:21:43.665Z,99966.68
2022-08-05T21:24:19.309Z,99978.86
2022-08-05T21:26:53.557Z,99983.63
2022-08-05T21:29:31.813Z,99997.14
2022-08-05T21:32:02.513Z,99997.64
2022-08-05T21:34:31.499Z,100001.49
2022-08-05T21:37:00.925Z,100010.51
2022-08-05T21:39:29.607Z,99999.45
2022-08-05T21:42:02.029Z,99997.58
2022-08-05T21:44:31.952Z,99996.66
2022-08-05T21:47:00.382Z,99990.02
2022-08-05T21:49:48.167Z,99981.35
2022-08-05T21:52:27.319Z,99975.19
2022-08-05T21:55:06.320Z,99963.59
2022-08-05T21:57:37.434Z,99960.57
2022-08-05T22:00:15.102Z,99966.31
